sensor_id;sensor_type;location;lat;lon;timestamp;P1;durP1;ratioP1;P2;durP2;ratioP2
78871;SDS011;68247;43.514;1.502;2023-03-01T00:01:28;18.95;;;11.48;;
78871;SDS011;68247;43.514;1.502;2023-03-01T00:03:55;19.43;;;11.37;;
78871;SDS011;68247;43.514;1.502;2023-03-01T00:06:21;19.45;;;11.45;;
78871;SDS011;68247;43.514;1.502;2023-03-01T00:08:46;19.95;;;11.15;;
78871;SDS011;68247;43.514;1.502;2023-03-01T00:11:14;21.93;;;11.13;;
78871;SDS011;68247;43.514;1.502;2023-03-01T00:13:42;19.10;;;11.35;;
78871;SDS011;68247;43.514;1.502;2023-03-01T00:16:18;18.98;;;11.68;;
78871;SDS011;68247;43.514;1.502;2023-03-01T00:18:45;19.55;;;10.88;;
78871;SDS011;68247;43.514;1.502;2023-03-01T00:21:11;18.37;;;11.00;;
78871;SDS011;68247;43.514;1.502;2023-03-01T00:23:37;20.53;;;11.73;;
78871;SDS011;68247;43.514;1.502;2023-03-01T00:26:05;21.87;;;11.90;;
78871;SDS011;68247;43.514;1.502;2023-03-01T00:28:32;21.92;;;12.20;;
78871;SDS011;68247;43.514;1.502;2023-03-01T00:31:02;21.07;;;11.80;;
78871;SDS011;68247;43.514;1.502;2023-03-01T00:33:29;20.40;;;11.73;;
78871;SDS011;68247;43.514;1.502;2023-03-01T00:35:54;21.30;;;11.47;;
78871;SDS011;68247;43.514;1.502;2023-03-01T00:38:20;20.33;;;11.17;;
78871;SDS011;68247;43.514;1.502;2023-03-01T00:40:45;20.83;;;11.27;;
78871;SDS011;68247;43.514;1.502;2023-03-01T00:43:10;20.90;;;11.07;;
78871;SDS011;68247;43.514;1.502;2023-03-01T00:45:36;20.80;;;12.10;;
78871;SDS011;68247;43.514;1.502;2023-03-01T00:48:01;22.70;;;11.67;;
78871;SDS011;68247;43.514;1.502;2023-03-01T00:50:27;20.13;;;11.77;;
78871;SDS011;68247;43.514;1.502;2023-03-01T00:52:53;19.37;;;11.43;;
78871;SDS011;68247;43.514;1.502;2023-03-01T00:55:19;16.48;;;9.98;;
78871;SDS011;68247;43.514;1.502;2023-03-01T00:57:45;18.20;;;10.87;;
78871;SDS011;68247;43.514;1.502;2023-03-01T01:00:10;18.90;;;9.67;;
78871;SDS011;68247;43.514;1.502;2023-03-01T01:02:36;17.48;;;10.13;;
78871;SDS011;68247;43.514;1.502;2023-03-01T01:05:02;16.60;;;9.93;;
78871;SDS011;68247;43.514;1.502;2023-03-01T01:07:28;19.27;;;10.45;;
78871;SDS011;68247;43.514;1.502;2023-03-01T01:09:53;16.13;;;9.47;;
78871;SDS011;68247;43.514;1.502;2023-03-01T01:12:18;16.63;;;8.90;;
78871;SDS011;68247;43.514;1.502;2023-03-01T01:14:44;19.27;;;9.75;;
78871;SDS011;68247;43.514;1.502;2023-03-01T01:17:09;17.60;;;10.17;;
78871;SDS011;68247;43.514;1.502;2023-03-01T01:19:35;18.63;;;10.60;;
78871;SDS011;68247;43.514;1.502;2023-03-01T01:22:00;21.40;;;11.60;;
78871;SDS011;68247;43.514;1.502;2023-03-01T01:24:26;18.80;;;10.43;;
78871;SDS011;68247;43.514;1.502;2023-03-01T01:26:51;23.40;;;11.03;;
78871;SDS011;68247;43.514;1.502;2023-03-01T01:29:16;18.63;;;10.80;;
78871;SDS011;68247;43.514;1.502;2023-03-01T01:31:42;18.23;;;10.00;;
78871;SDS011;68247;43.514;1.502;2023-03-01T01:34:11;20.23;;;10.60;;
78871;SDS011;68247;43.514;1.502;2023-03-01T01:36:39;20.23;;;10.82;;
78871;SDS011;68247;43.514;1.502;2023-03-01T01:39:04;16.83;;;9.37;;
78871;SDS011;68247;43.514;1.502;2023-03-01T01:41:30;17.80;;;10.60;;
78871;SDS011;68247;43.514;1.502;2023-03-01T01:47:13;18.88;;;10.80;;
78871;SDS011;68247;43.514;1.502;2023-03-01T01:49:56;17.67;;;10.68;;
78871;SDS011;68247;43.514;1.502;2023-03-01T01:52:34;15.73;;;8.93;;
78871;SDS011;68247;43.514;1.502;2023-03-01T01:55:08;17.48;;;10.55;;
78871;SDS011;68247;43.514;1.502;2023-03-01T01:57:46;16.07;;;8.37;;
78871;SDS011;68247;43.514;1.502;2023-03-01T02:00:14;16.73;;;9.85;;
78871;SDS011;68247;43.514;1.502;2023-03-01T02:02:42;18.65;;;10.63;;
78871;SDS011;68247;43.514;1.502;2023-03-01T02:07:40;17.80;;;10.45;;
78871;SDS011;68247;43.514;1.502;2023-03-01T02:10:07;21.70;;;11.40;;
78871;SDS011;68247;43.514;1.502;2023-03-01T02:12:33;19.55;;;10.98;;
78871;SDS011;68247;43.514;1.502;2023-03-01T02:14:59;23.77;;;12.43;;
78871;SDS011;68247;43.514;1.502;2023-03-01T02:17:24;20.50;;;11.27;;
78871;SDS011;68247;43.514;1.502;2023-03-01T02:22:34;20.73;;;11.32;;
78871;SDS011;68247;43.514;1.502;2023-03-01T02:27:38;23.10;;;12.27;;
78871;SDS011;68247;43.514;1.502;2023-03-01T02:30:09;23.03;;;11.63;;
78871;SDS011;68247;43.514;1.502;2023-03-01T02:32:38;23.38;;;12.15;;
78871;SDS011;68247;43.514;1.502;2023-03-01T02:35:06;23.60;;;11.88;;
78871;SDS011;68247;43.514;1.502;2023-03-01T02:37:34;20.63;;;11.85;;
78871;SDS011;68247;43.514;1.502;2023-03-01T02:40:02;19.27;;;10.73;;
78871;SDS011;68247;43.514;1.502;2023-03-01T02:42:36;19.17;;;10.98;;
78871;SDS011;68247;43.514;1.502;2023-03-01T02:45:09;23.17;;;11.38;;
78871;SDS011;68247;43.514;1.502;2023-03-01T02:47:35;19.00;;;10.35;;
78871;SDS011;68247;43.514;1.502;2023-03-01T02:50:01;19.60;;;10.87;;
78871;SDS011;68247;43.514;1.502;2023-03-01T02:52:28;20.97;;;10.87;;
78871;SDS011;68247;43.514;1.502;2023-03-01T02:55:03;16.45;;;10.25;;
78871;SDS011;68247;43.514;1.502;2023-03-01T02:57:33;17.77;;;10.15;;
78871;SDS011;68247;43.514;1.502;2023-03-01T03:00:02;20.52;;;12.10;;
78871;SDS011;68247;43.514;1.502;2023-03-01T03:02:34;18.38;;;11.50;;
78871;SDS011;68247;43.514;1.502;2023-03-01T03:05:07;18.57;;;10.50;;
78871;SDS011;68247;43.514;1.502;2023-03-01T03:07:37;18.92;;;11.30;;
78871;SDS011;68247;43.514;1.502;2023-03-01T03:10:04;19.27;;;10.48;;
78871;SDS011;68247;43.514;1.502;2023-03-01T03:12:30;17.38;;;10.95;;
78871;SDS011;68247;43.514;1.502;2023-03-01T03:14:55;17.07;;;10.50;;
78871;SDS011;68247;43.514;1.502;2023-03-01T03:17:21;17.97;;;10.27;;
78871;SDS011;68247;43.514;1.502;2023-03-01T03:19:46;19.60;;;9.80;;
78871;SDS011;68247;43.514;1.502;2023-03-01T03:22:12;18.80;;;10.57;;
78871;SDS011;68247;43.514;1.502;2023-03-01T03:24:37;17.00;;;10.40;;
78871;SDS011;68247;43.514;1.502;2023-03-01T03:27:03;18.53;;;10.27;;
78871;SDS011;68247;43.514;1.502;2023-03-01T03:29:30;19.25;;;10.52;;
78871;SDS011;68247;43.514;1.502;2023-03-01T03:31:55;19.63;;;10.88;;
78871;SDS011;68247;43.514;1.502;2023-03-01T03:34:21;21.87;;;11.37;;
78871;SDS011;68247;43.514;1.502;2023-03-01T03:36:46;19.00;;;9.67;;
78871;SDS011;68247;43.514;1.502;2023-03-01T03:39:11;19.53;;;11.60;;
78871;SDS011;68247;43.514;1.502;2023-03-01T03:41:37;16.20;;;10.32;;
78871;SDS011;68247;43.514;1.502;2023-03-01T03:44:02;16.07;;;9.27;;
78871;SDS011;68247;43.514;1.502;2023-03-01T03:46:28;18.03;;;9.87;;
78871;SDS011;68247;43.514;1.502;2023-03-01T03:48:53;20.13;;;10.87;;
78871;SDS011;68247;43.514;1.502;2023-03-01T03:51:20;18.85;;;9.95;;
78871;SDS011;68247;43.514;1.502;2023-03-01T03:53:47;17.20;;;9.73;;
78871;SDS011;68247;43.514;1.502;2023-03-01T03:56:13;18.77;;;10.37;;
78871;SDS011;68247;43.514;1.502;2023-03-01T03:58:38;18.77;;;10.32;;
78871;SDS011;68247;43.514;1.502;2023-03-01T04:01:04;16.87;;;10.07;;
78871;SDS011;68247;43.514;1.502;2023-03-01T04:03:30;17.43;;;10.23;;
78871;SDS011;68247;43.514;1.502;2023-03-01T04:05:58;20.00;;;10.15;;
78871;SDS011;68247;43.514;1.502;2023-03-01T04:08:24;18.70;;;9.98;;
78871;SDS011;68247;43.514;1.502;2023-03-01T04:10:51;18.27;;;9.80;;
78871;SDS011;68247;43.514;1.502;2023-03-01T04:13:19;18.15;;;9.57;;
78871;SDS011;68247;43.514;1.502;2023-03-01T04:15:49;16.10;;;9.40;;
78871;SDS011;68247;43.514;1.502;2023-03-01T04:18:16;17.05;;;9.45;;
78871;SDS011;68247;43.514;1.502;2023-03-01T04:20:43;16.83;;;9.65;;
78871;SDS011;68247;43.514;1.502;2023-03-01T04:23:12;18.02;;;9.25;;
78871;SDS011;68247;43.514;1.502;2023-03-01T04:25:47;16.65;;;9.88;;
78871;SDS011;68247;43.514;1.502;2023-03-01T04:28:18;19.50;;;10.03;;
78871;SDS011;68247;43.514;1.502;2023-03-01T04:30:44;18.10;;;10.88;;
78871;SDS011;68247;43.514;1.502;2023-03-01T04:33:10;16.10;;;10.07;;
78871;SDS011;68247;43.514;1.502;2023-03-01T04:35:36;15.07;;;9.65;;
78871;SDS011;68247;43.514;1.502;2023-03-01T04:38:02;16.83;;;9.82;;
78871;SDS011;68247;43.514;1.502;2023-03-01T04:40:28;18.27;;;9.90;;
78871;SDS011;68247;43.514;1.502;2023-03-01T04:42:53;19.60;;;9.90;;
78871;SDS011;68247;43.514;1.502;2023-03-01T04:45:19;16.87;;;10.03;;
78871;SDS011;68247;43.514;1.502;2023-03-01T04:47:45;17.65;;;9.90;;
78871;SDS011;68247;43.514;1.502;2023-03-01T04:50:12;18.63;;;10.30;;
78871;SDS011;68247;43.514;1.502;2023-03-01T04:52:40;18.27;;;9.67;;
78871;SDS011;68247;43.514;1.502;2023-03-01T04:55:06;18.85;;;9.32;;
78871;SDS011;68247;43.514;1.502;2023-03-01T04:57:32;18.00;;;10.03;;
78871;SDS011;68247;43.514;1.502;2023-03-01T04:59:57;19.13;;;10.02;;
78871;SDS011;68247;43.514;1.502;2023-03-01T05:02:23;19.67;;;10.57;;
78871;SDS011;68247;43.514;1.502;2023-03-01T05:04:48;20.20;;;11.73;;
78871;SDS011;68247;43.514;1.502;2023-03-01T05:07:14;21.77;;;11.85;;
78871;SDS011;68247;43.514;1.502;2023-03-01T05:09:44;22.43;;;11.17;;
78871;SDS011;68247;43.514;1.502;2023-03-01T05:12:13;20.73;;;11.27;;
78871;SDS011;68247;43.514;1.502;2023-03-01T05:14:39;19.15;;;11.35;;
78871;SDS011;68247;43.514;1.502;2023-03-01T05:17:04;20.48;;;10.63;;
78871;SDS011;68247;43.514;1.502;2023-03-01T05:19:30;20.13;;;10.27;;
78871;SDS011;68247;43.514;1.502;2023-03-01T05:21:57;19.77;;;10.90;;
78871;SDS011;68247;43.514;1.502;2023-03-01T05:24:29;19.48;;;10.73;;
78871;SDS011;68247;43.514;1.502;2023-03-01T05:26:56;19.08;;;11.60;;
78871;SDS011;68247;43.514;1.502;2023-03-01T05:29:22;24.00;;;12.57;;
78871;SDS011;68247;43.514;1.502;2023-03-01T05:32:00;29.42;;;13.77;;
78871;SDS011;68247;43.514;1.502;2023-03-01T05:34:34;29.33;;;16.07;;
78871;SDS011;68247;43.514;1.502;2023-03-01T05:37:01;32.17;;;15.93;;
78871;SDS011;68247;43.514;1.502;2023-03-01T05:39:27;30.63;;;16.73;;
78871;SDS011;68247;43.514;1.502;2023-03-01T05:41:55;28.13;;;14.70;;
78871;SDS011;68247;43.514;1.502;2023-03-01T05:44:22;25.95;;;14.10;;
78871;SDS011;68247;43.514;1.502;2023-03-01T05:46:48;25.67;;;13.57;;
78871;SDS011;68247;43.514;1.502;2023-03-01T05:49:14;23.23;;;12.57;;
78871;SDS011;68247;43.514;1.502;2023-03-01T05:51:40;20.67;;;11.32;;
78871;SDS011;68247;43.514;1.502;2023-03-01T05:54:07;20.10;;;10.80;;
78871;SDS011;68247;43.514;1.502;2023-03-01T05:56:33;19.38;;;10.48;;
78871;SDS011;68247;43.514;1.502;2023-03-01T05:59:00;21.30;;;11.17;;
78871;SDS011;68247;43.514;1.502;2023-03-01T06:01:25;25.00;;;11.20;;
78871;SDS011;68247;43.514;1.502;2023-03-01T06:03:51;22.02;;;11.60;;
78871;SDS011;68247;43.514;1.502;2023-03-01T06:06:16;21.53;;;10.47;;
78871;SDS011;68247;43.514;1.502;2023-03-01T06:08:42;19.10;;;10.63;;
78871;SDS011;68247;43.514;1.502;2023-03-01T06:11:07;17.23;;;9.87;;
78871;SDS011;68247;43.514;1.502;2023-03-01T06:13:33;19.73;;;10.60;;
78871;SDS011;68247;43.514;1.502;2023-03-01T06:15:58;20.20;;;11.18;;
78871;SDS011;68247;43.514;1.502;2023-03-01T06:18:23;21.27;;;11.53;;
78871;SDS011;68247;43.514;1.502;2023-03-01T06:20:53;23.67;;;12.07;;
78871;SDS011;68247;43.514;1.502;2023-03-01T06:23:19;23.23;;;11.73;;
78871;SDS011;68247;43.514;1.502;2023-03-01T06:25:44;25.50;;;12.63;;
78871;SDS011;68247;43.514;1.502;2023-03-01T06:28:09;28.23;;;14.10;;
78871;SDS011;68247;43.514;1.502;2023-03-01T06:30:35;30.20;;;14.67;;
78871;SDS011;68247;43.514;1.502;2023-03-01T06:33:00;26.67;;;15.02;;
78871;SDS011;68247;43.514;1.502;2023-03-01T06:35:28;27.15;;;14.82;;
78871;SDS011;68247;43.514;1.502;2023-03-01T06:37:56;22.57;;;13.37;;
78871;SDS011;68247;43.514;1.502;2023-03-01T06:40:22;24.55;;;13.30;;
78871;SDS011;68247;43.514;1.502;2023-03-01T06:42:48;27.58;;;13.95;;
78871;SDS011;68247;43.514;1.502;2023-03-01T06:45:15;26.27;;;14.53;;
78871;SDS011;68247;43.514;1.502;2023-03-01T06:47:41;32.08;;;15.48;;
78871;SDS011;68247;43.514;1.502;2023-03-01T06:50:06;31.60;;;15.40;;
78871;SDS011;68247;43.514;1.502;2023-03-01T06:52:32;29.00;;;15.50;;
78871;SDS011;68247;43.514;1.502;2023-03-01T06:54:58;30.47;;;17.30;;
78871;SDS011;68247;43.514;1.502;2023-03-01T06:57:23;33.80;;;17.55;;
78871;SDS011;68247;43.514;1.502;2023-03-01T06:59:49;33.93;;;17.63;;
78871;SDS011;68247;43.514;1.502;2023-03-01T07:02:14;33.23;;;17.00;;
78871;SDS011;68247;43.514;1.502;2023-03-01T07:04:41;33.25;;;16.92;;
78871;SDS011;68247;43.514;1.502;2023-03-01T07:07:06;35.67;;;17.13;;
78871;SDS011;68247;43.514;1.502;2023-03-01T07:09:32;33.97;;;16.87;;
78871;SDS011;68247;43.514;1.502;2023-03-01T07:11:58;31.77;;;16.80;;
78871;SDS011;68247;43.514;1.502;2023-03-01T07:14:23;33.25;;;16.90;;
78871;SDS011;68247;43.514;1.502;2023-03-01T07:16:54;33.28;;;15.82;;
78871;SDS011;68247;43.514;1.502;2023-03-01T07:19:20;29.47;;;15.87;;
78871;SDS011;68247;43.514;1.502;2023-03-01T07:21:46;34.20;;;17.10;;
78871;SDS011;68247;43.514;1.502;2023-03-01T07:24:12;33.60;;;18.57;;
78871;SDS011;68247;43.514;1.502;2023-03-01T07:26:37;36.43;;;19.53;;
78871;SDS011;68247;43.514;1.502;2023-03-01T07:29:03;37.63;;;18.33;;
78871;SDS011;68247;43.514;1.502;2023-03-01T07:31:30;32.85;;;17.50;;
78871;SDS011;68247;43.514;1.502;2023-03-01T07:33:56;35.53;;;17.97;;
78871;SDS011;68247;43.514;1.502;2023-03-01T07:36:22;33.88;;;18.80;;
78871;SDS011;68247;43.514;1.502;2023-03-01T07:38:47;35.00;;;17.90;;
78871;SDS011;68247;43.514;1.502;2023-03-01T07:41:13;37.77;;;19.30;;
78871;SDS011;68247;43.514;1.502;2023-03-01T07:43:39;32.67;;;18.45;;
78871;SDS011;68247;43.514;1.502;2023-03-01T07:46:05;33.33;;;17.17;;
78871;SDS011;68247;43.514;1.502;2023-03-01T07:48:31;35.47;;;18.10;;
78871;SDS011;68247;43.514;1.502;2023-03-01T07:50:58;33.35;;;18.42;;
78871;SDS011;68247;43.514;1.502;2023-03-01T07:53:27;34.75;;;18.73;;
78871;SDS011;68247;43.514;1.502;2023-03-01T07:58:28;30.70;;;17.95;;
78871;SDS011;68247;43.514;1.502;2023-03-01T08:00:53;31.03;;;18.43;;
78871;SDS011;68247;43.514;1.502;2023-03-01T08:03:19;32.50;;;17.60;;
78871;SDS011;68247;43.514;1.502;2023-03-01T08:05:44;31.10;;;17.30;;
78871;SDS011;68247;43.514;1.502;2023-03-01T08:08:09;30.20;;;17.20;;
78871;SDS011;68247;43.514;1.502;2023-03-01T08:10:35;32.23;;;18.10;;
78871;SDS011;68247;43.514;1.502;2023-03-01T08:13:01;31.08;;;17.48;;
78871;SDS011;68247;43.514;1.502;2023-03-01T08:15:27;33.17;;;16.87;;
78871;SDS011;68247;43.514;1.502;2023-03-01T08:17:52;36.47;;;17.70;;
78871;SDS011;68247;43.514;1.502;2023-03-01T08:20:17;27.83;;;15.93;;
78871;SDS011;68247;43.514;1.502;2023-03-01T08:22:43;28.45;;;16.40;;
78871;SDS011;68247;43.514;1.502;2023-03-01T08:25:08;27.67;;;15.37;;
78871;SDS011;68247;43.514;1.502;2023-03-01T08:27:34;29.83;;;14.73;;
78871;SDS011;68247;43.514;1.502;2023-03-01T08:29:59;28.98;;;15.52;;
78871;SDS011;68247;43.514;1.502;2023-03-01T08:32:25;25.90;;;14.80;;
78871;SDS011;68247;43.514;1.502;2023-03-01T08:34:50;29.80;;;15.07;;
78871;SDS011;68247;43.514;1.502;2023-03-01T08:37:16;24.87;;;14.70;;
78871;SDS011;68247;43.514;1.502;2023-03-01T08:39:41;24.30;;;13.03;;
78871;SDS011;68247;43.514;1.502;2023-03-01T08:42:06;25.10;;;12.93;;
78871;SDS011;68247;43.514;1.502;2023-03-01T08:44:32;24.53;;;13.67;;
78871;SDS011;68247;43.514;1.502;2023-03-01T08:46:58;17.60;;;9.00;;
78871;SDS011;68247;43.514;1.502;2023-03-01T08:49:25;14.50;;;8.13;;
78871;SDS011;68247;43.514;1.502;2023-03-01T08:51:50;12.70;;;7.90;;
78871;SDS011;68247;43.514;1.502;2023-03-01T08:54:17;13.70;;;7.93;;
78871;SDS011;68247;43.514;1.502;2023-03-01T08:56:44;14.32;;;8.40;;
78871;SDS011;68247;43.514;1.502;2023-03-01T08:59:10;13.32;;;8.30;;
78871;SDS011;68247;43.514;1.502;2023-03-01T09:01:37;12.93;;;8.23;;
78871;SDS011;68247;43.514;1.502;2023-03-01T09:04:02;12.52;;;8.10;;
78871;SDS011;68247;43.514;1.502;2023-03-01T09:06:32;11.30;;;6.70;;
78871;SDS011;68247;43.514;1.502;2023-03-01T09:08:58;11.55;;;7.47;;
78871;SDS011;68247;43.514;1.502;2023-03-01T09:11:24;12.00;;;7.32;;
78871;SDS011;68247;43.514;1.502;2023-03-01T09:13:49;12.50;;;7.90;;
78871;SDS011;68247;43.514;1.502;2023-03-01T09:16:16;8.63;;;5.88;;
78871;SDS011;68247;43.514;1.502;2023-03-01T09:18:44;9.97;;;6.20;;
78871;SDS011;68247;43.514;1.502;2023-03-01T09:21:11;11.25;;;7.10;;
78871;SDS011;68247;43.514;1.502;2023-03-01T09:23:41;10.68;;;7.07;;
78871;SDS011;68247;43.514;1.502;2023-03-01T09:26:12;12.63;;;7.30;;
78871;SDS011;68247;43.514;1.502;2023-03-01T09:28:39;10.25;;;6.95;;
78871;SDS011;68247;43.514;1.502;2023-03-01T09:31:06;14.27;;;7.40;;
78871;SDS011;68247;43.514;1.502;2023-03-01T09:33:32;13.10;;;8.10;;
78871;SDS011;68247;43.514;1.502;2023-03-01T09:38:24;13.27;;;7.50;;
78871;SDS011;68247;43.514;1.502;2023-03-01T09:40:50;12.05;;;7.22;;
78871;SDS011;68247;43.514;1.502;2023-03-01T09:43:19;10.83;;;6.87;;
78871;SDS011;68247;43.514;1.502;2023-03-01T09:45:49;12.30;;;7.25;;
78871;SDS011;68247;43.514;1.502;2023-03-01T09:48:19;11.82;;;6.80;;
78871;SDS011;68247;43.514;1.502;2023-03-01T09:50:47;14.93;;;7.35;;
78871;SDS011;68247;43.514;1.502;2023-03-01T09:53:13;13.90;;;7.63;;
78871;SDS011;68247;43.514;1.502;2023-03-01T09:56:01;15.15;;;7.95;;
78871;SDS011;68247;43.514;1.502;2023-03-01T10:04:24;10.30;;;6.97;;
78871;SDS011;68247;43.514;1.502;2023-03-01T10:09:32;14.52;;;7.53;;
78871;SDS011;68247;43.514;1.502;2023-03-01T10:11:59;16.30;;;8.73;;
78871;SDS011;68247;43.514;1.502;2023-03-01T10:20:09;15.15;;;9.40;;
78871;SDS011;68247;43.514;1.502;2023-03-01T10:22:39;13.65;;;8.65;;
78871;SDS011;68247;43.514;1.502;2023-03-01T10:25:05;14.60;;;8.60;;
78871;SDS011;68247;43.514;1.502;2023-03-01T10:27:34;15.45;;;8.98;;
78871;SDS011;68247;43.514;1.502;2023-03-01T10:30:22;16.70;;;7.97;;
78871;SDS011;68247;43.514;1.502;2023-03-01T10:32:57;14.43;;;9.82;;
78871;SDS011;68247;43.514;1.502;2023-03-01T10:35:25;15.38;;;9.18;;
78871;SDS011;68247;43.514;1.502;2023-03-01T10:37:56;14.25;;;9.40;;
78871;SDS011;68247;43.514;1.502;2023-03-01T10:40:30;12.87;;;8.00;;
78871;SDS011;68247;43.514;1.502;2023-03-01T10:42:59;16.98;;;9.05;;
78871;SDS011;68247;43.514;1.502;2023-03-01T10:50:42;13.63;;;8.30;;
78871;SDS011;68247;43.514;1.502;2023-03-01T10:53:19;12.60;;;7.97;;
78871;SDS011;68247;43.514;1.502;2023-03-01T10:55:59;10.43;;;7.13;;
78871;SDS011;68247;43.514;1.502;2023-03-01T10:58:25;11.77;;;6.88;;
78871;SDS011;68247;43.514;1.502;2023-03-01T11:01:01;9.23;;;6.20;;
78871;SDS011;68247;43.514;1.502;2023-03-01T11:11:14;9.00;;;6.13;;
78871;SDS011;68247;43.514;1.502;2023-03-01T11:13:57;10.32;;;6.43;;
78871;SDS011;68247;43.514;1.502;2023-03-01T11:16:33;9.88;;;6.07;;
78871;SDS011;68247;43.514;1.502;2023-03-01T11:19:04;7.70;;;5.17;;
78871;SDS011;68247;43.514;1.502;2023-03-01T11:21:43;7.97;;;5.60;;
78871;SDS011;68247;43.514;1.502;2023-03-01T11:24:16;9.55;;;6.82;;
78871;SDS011;68247;43.514;1.502;2023-03-01T11:26:43;9.23;;;6.03;;
78871;SDS011;68247;43.514;1.502;2023-03-01T11:29:30;9.40;;;6.20;;
78871;SDS011;68247;43.514;1.502;2023-03-01T11:32:01;9.20;;;5.43;;
78871;SDS011;68247;43.514;1.502;2023-03-01T11:40:34;12.27;;;6.13;;
78871;SDS011;68247;43.514;1.502;2023-03-01T11:43:04;10.52;;;6.55;;
78871;SDS011;68247;43.514;1.502;2023-03-01T11:45:40;8.70;;;5.80;;
78871;SDS011;68247;43.514;1.502;2023-03-01T11:56:38;10.05;;;7.00;;
78871;SDS011;68247;43.514;1.502;2023-03-01T11:59:20;9.07;;;7.00;;
78871;SDS011;68247;43.514;1.502;2023-03-01T12:01:56;9.73;;;6.68;;
78871;SDS011;68247;43.514;1.502;2023-03-01T12:10:19;10.90;;;7.07;;
78871;SDS011;68247;43.514;1.502;2023-03-01T12:18:21;8.35;;;6.53;;
78871;SDS011;68247;43.514;1.502;2023-03-01T12:21:05;9.05;;;7.28;;
78871;SDS011;68247;43.514;1.502;2023-03-01T12:23:48;8.02;;;6.70;;
78871;SDS011;68247;43.514;1.502;2023-03-01T12:31:30;10.68;;;7.60;;
78871;SDS011;68247;43.514;1.502;2023-03-01T12:36:54;9.13;;;7.00;;
78871;SDS011;68247;43.514;1.502;2023-03-01T12:50:55;9.43;;;7.20;;
78871;SDS011;68247;43.514;1.502;2023-03-01T12:53:25;8.43;;;7.20;;
78871;SDS011;68247;43.514;1.502;2023-03-01T12:56:01;8.40;;;6.95;;
78871;SDS011;68247;43.514;1.502;2023-03-01T12:58:32;8.30;;;7.22;;
78871;SDS011;68247;43.514;1.502;2023-03-01T13:01:05;8.90;;;8.00;;
78871;SDS011;68247;43.514;1.502;2023-03-01T13:11:35;9.10;;;8.10;;
78871;SDS011;68247;43.514;1.502;2023-03-01T13:16:45;8.55;;;7.00;;
78871;SDS011;68247;43.514;1.502;2023-03-01T13:19:24;8.40;;;7.50;;
78871;SDS011;68247;43.514;1.502;2023-03-01T13:21:51;9.20;;;8.23;;
78871;SDS011;68247;43.514;1.502;2023-03-01T13:32:21;8.00;;;6.60;;
78871;SDS011;68247;43.514;1.502;2023-03-01T13:34:57;8.18;;;7.38;;
78871;SDS011;68247;43.514;1.502;2023-03-01T13:37:36;8.50;;;7.47;;
78871;SDS011;68247;43.514;1.502;2023-03-01T13:40:04;7.93;;;7.10;;
78871;SDS011;68247;43.514;1.502;2023-03-01T13:42:49;8.35;;;7.55;;
78871;SDS011;68247;43.514;1.502;2023-03-01T13:47:43;8.60;;;7.03;;
78871;SDS011;68247;43.514;1.502;2023-03-01T13:53:17;8.15;;;7.35;;
78871;SDS011;68247;43.514;1.502;2023-03-01T13:55:45;7.93;;;6.90;;
78871;SDS011;68247;43.514;1.502;2023-03-01T13:58:23;8.35;;;7.47;;
78871;SDS011;68247;43.514;1.502;2023-03-01T14:03:29;7.57;;;6.50;;
78871;SDS011;68247;43.514;1.502;2023-03-01T14:05:59;7.45;;;6.75;;
78871;SDS011;68247;43.514;1.502;2023-03-01T14:08:29;11.07;;;7.38;;
78871;SDS011;68247;43.514;1.502;2023-03-01T14:13:54;7.78;;;6.97;;
78871;SDS011;68247;43.514;1.502;2023-03-01T14:16:53;8.17;;;6.77;;
78871;SDS011;68247;43.514;1.502;2023-03-01T14:19:19;8.00;;;7.18;;
78871;SDS011;68247;43.514;1.502;2023-03-01T14:21:58;8.20;;;7.38;;
78871;SDS011;68247;43.514;1.502;2023-03-01T14:24:46;7.82;;;7.00;;
78871;SDS011;68247;43.514;1.502;2023-03-01T14:27:14;7.45;;;6.70;;
78871;SDS011;68247;43.514;1.502;2023-03-01T14:29:40;7.87;;;7.07;;
78871;SDS011;68247;43.514;1.502;2023-03-01T14:32:09;7.88;;;6.97;;
78871;SDS011;68247;43.514;1.502;2023-03-01T14:34:35;7.65;;;6.85;;
78871;SDS011;68247;43.514;1.502;2023-03-01T14:39:59;8.10;;;7.15;;
78871;SDS011;68247;43.514;1.502;2023-03-01T14:42:28;7.83;;;7.03;;
78871;SDS011;68247;43.514;1.502;2023-03-01T14:44:56;8.00;;;7.20;;
78871;SDS011;68247;43.514;1.502;2023-03-01T14:47:27;7.97;;;7.18;;
78871;SDS011;68247;43.514;1.502;2023-03-01T14:50:15;8.70;;;7.65;;
78871;SDS011;68247;43.514;1.502;2023-03-01T14:52:48;8.90;;;7.78;;
78871;SDS011;68247;43.514;1.502;2023-03-01T14:55:17;7.87;;;7.07;;
78871;SDS011;68247;43.514;1.502;2023-03-01T14:57:46;7.97;;;7.13;;
78871;SDS011;68247;43.514;1.502;2023-03-01T15:00:23;8.15;;;7.03;;
78871;SDS011;68247;43.514;1.502;2023-03-01T15:02:51;8.50;;;7.60;;
78871;SDS011;68247;43.514;1.502;2023-03-01T15:05:20;9.13;;;6.97;;
78871;SDS011;68247;43.514;1.502;2023-03-01T15:07:58;8.03;;;6.43;;
78871;SDS011;68247;43.514;1.502;2023-03-01T15:10:26;8.63;;;7.40;;
78871;SDS011;68247;43.514;1.502;2023-03-01T15:12:55;8.43;;;7.15;;
78871;SDS011;68247;43.514;1.502;2023-03-01T15:17:56;8.85;;;7.32;;
78871;SDS011;68247;43.514;1.502;2023-03-01T15:20:23;7.67;;;6.60;;
78871;SDS011;68247;43.514;1.502;2023-03-01T15:22:51;8.18;;;7.32;;
78871;SDS011;68247;43.514;1.502;2023-03-01T15:25:18;8.25;;;7.13;;
78871;SDS011;68247;43.514;1.502;2023-03-01T15:27:47;8.10;;;7.30;;
78871;SDS011;68247;43.514;1.502;2023-03-01T15:30:23;8.95;;;6.95;;
78871;SDS011;68247;43.514;1.502;2023-03-01T15:35:51;7.70;;;6.47;;
78871;SDS011;68247;43.514;1.502;2023-03-01T15:44:17;9.77;;;6.32;;
78871;SDS011;68247;43.514;1.502;2023-03-01T15:46:52;9.40;;;7.33;;
78871;SDS011;68247;43.514;1.502;2023-03-01T15:49:24;8.32;;;6.72;;
78871;SDS011;68247;43.514;1.502;2023-03-01T15:52:21;9.73;;;6.75;;
78871;SDS011;68247;43.514;1.502;2023-03-01T15:55:02;8.33;;;6.57;;
78871;SDS011;68247;43.514;1.502;2023-03-01T15:57:29;8.40;;;7.13;;
78871;SDS011;68247;43.514;1.502;2023-03-01T15:59:54;12.43;;;6.60;;
78871;SDS011;68247;43.514;1.502;2023-03-01T16:02:20;10.00;;;6.80;;
78871;SDS011;68247;43.514;1.502;2023-03-01T16:04:47;9.80;;;6.97;;
78871;SDS011;68247;43.514;1.502;2023-03-01T16:07:13;8.73;;;6.67;;
78871;SDS011;68247;43.514;1.502;2023-03-01T16:09:39;10.05;;;6.15;;
78871;SDS011;68247;43.514;1.502;2023-03-01T16:12:05;8.17;;;6.07;;
78871;SDS011;68247;43.514;1.502;2023-03-01T16:14:31;8.20;;;6.35;;
78871;SDS011;68247;43.514;1.502;2023-03-01T16:16:56;8.43;;;5.90;;
78871;SDS011;68247;43.514;1.502;2023-03-01T16:19:21;9.73;;;6.43;;
78871;SDS011;68247;43.514;1.502;2023-03-01T16:21:47;9.13;;;6.70;;
78871;SDS011;68247;43.514;1.502;2023-03-01T16:24:14;11.15;;;6.55;;
78871;SDS011;68247;43.514;1.502;2023-03-01T16:26:39;8.47;;;6.07;;
78871;SDS011;68247;43.514;1.502;2023-03-01T16:29:05;10.23;;;6.33;;
78871;SDS011;68247;43.514;1.502;2023-03-01T16:31:30;11.07;;;6.30;;
78871;SDS011;68247;43.514;1.502;2023-03-01T16:33:56;9.60;;;7.13;;
78871;SDS011;68247;43.514;1.502;2023-03-01T16:36:23;10.50;;;6.80;;
78871;SDS011;68247;43.514;1.502;2023-03-01T16:38:50;8.85;;;6.35;;
78871;SDS011;68247;43.514;1.502;2023-03-01T16:41:17;9.88;;;6.93;;
78871;SDS011;68247;43.514;1.502;2023-03-01T16:43:45;11.50;;;7.13;;
78871;SDS011;68247;43.514;1.502;2023-03-01T16:46:15;10.93;;;7.55;;
78871;SDS011;68247;43.514;1.502;2023-03-01T16:48:42;8.20;;;5.17;;
78871;SDS011;68247;43.514;1.502;2023-03-01T16:51:07;10.52;;;6.38;;